createdAt,value
2019-05-22T00:02:21.820Z,11.10
2019-05-22T00:05:01.283Z,11.10
2019-05-22T00:07:32.858Z,11.10
2019-05-22T00:10:02.830Z,11.10
2019-05-22T00:12:46.051Z,11.10
2019-05-22T00:15:08.244Z,11.10
2019-05-22T00:17:39.376Z,11.10
2019-05-22T00:20:11.308Z,11.10
2019-05-22T00:22:43.233Z,11.00
2019-05-22T00:25:18.258Z,11.10
2019-05-22T00:27:50.113Z,11.10
2019-05-22T00:30:20.368Z,11.10
2019-05-22T00:32:50.461Z,11.10
2019-05-22T00:35:23.330Z,11.10
2019-05-22T00:37:56.226Z,11.10
2019-05-22T00:40:29.227Z,11.10
2019-05-22T00:43:05.054Z,11.10
2019-05-22T00:45:33.229Z,11.10
2019-05-22T00:48:04.686Z,11.10
2019-05-22T00:50:58.383Z,11.10
2019-05-22T00:53:48.293Z,11.10
2019-05-22T00:56:31.662Z,11.10
2019-05-22T00:59:08.371Z,11.10
2019-05-22T01:01:45.504Z,11.10
2019-05-22T01:04:16.998Z,11.10
2019-05-22T01:06:48.461Z,11.10
2019-05-22T01:09:25.264Z,11.10
2019-05-22T01:11:55.973Z,11.00
2019-05-22T01:14:41.926Z,11.00
2019-05-22T01:16:59.985Z,11.00
2019-05-22T01:19:30.232Z,11.10
2019-05-22T01:22:02.221Z,11.10
2019-05-22T01:24:33.062Z,11.10
2019-05-22T01:27:04.573Z,11.10
2019-05-22T01:29:36.260Z,11.00
2019-05-22T01:32:17.995Z,11.00
2019-05-22T01:34:48.538Z,11.10
2019-05-22T01:37:19.174Z,11.00
2019-05-22T01:40:15.048Z,11.00
2019-05-22T01:42:48.082Z,11.00
2019-05-22T01:45:20.632Z,11.10
2019-05-22T01:47:56.446Z,11.00
2019-05-22T01:50:38.270Z,11.00
2019-05-22T01:53:08.498Z,11.00
2019-05-22T01:55:39.763Z,11.00
2019-05-22T01:58:11.050Z,11.00
2019-05-22T02:00:42.122Z,11.00
2019-05-22T02:03:14.301Z,11.00
2019-05-22T02:05:44.247Z,11.00
2019-05-22T02:08:15.106Z,11.00
2019-05-22T02:10:45.934Z,11.00
2019-05-22T02:13:20.054Z,11.00
2019-05-22T02:15:50.069Z,11.00
2019-05-22T02:18:23.023Z,11.00
2019-05-22T02:20:53.165Z,10.90
2019-05-22T02:23:23.061Z,10.90
2019-05-22T02:25:52.939Z,11.00
2019-05-22T02:28:24.666Z,11.00
2019-05-22T02:30:55.911Z,11.00
2019-05-22T02:33:26.970Z,11.00
2019-05-22T02:35:56.830Z,11.00
2019-05-22T02:38:26.978Z,11.00
2019-05-22T02:40:59.083Z,10.90
2019-05-22T02:43:30.105Z,10.90
2019-05-22T02:46:00.227Z,11.00
2019-05-22T02:48:30.822Z,11.00
2019-05-22T02:51:01.826Z,11.00
2019-05-22T02:53:32.989Z,11.00
2019-05-22T02:56:03.830Z,11.00
2019-05-22T02:58:34.459Z,11.00
2019-05-22T03:01:06.654Z,11.00
2019-05-22T03:03:37.469Z,11.00
2019-05-22T03:06:11.135Z,11.00
2019-05-22T03:09:10.181Z,11.00
2019-05-22T03:11:43.665Z,11.00
2019-05-22T03:14:15.011Z,10.90
2019-05-22T03:16:51.352Z,11.00
2019-05-22T03:19:36.455Z,10.90
2019-05-22T03:22:20.548Z,10.90
2019-05-22T03:24:51.450Z,10.90
2019-05-22T03:27:29.240Z,10.90
2019-05-22T03:29:59.836Z,10.90
2019-05-22T03:32:30.429Z,10.90
2019-05-22T03:35:01.211Z,10.90
2019-05-22T03:37:31.152Z,11.00
2019-05-22T03:40:01.054Z,10.90
2019-05-22T03:42:30.897Z,10.90
2019-05-22T03:45:01.939Z,10.90
2019-05-22T03:47:32.334Z,10.90
2019-05-22T03:50:04.292Z,10.90
2019-05-22T03:52:34.635Z,10.90
2019-05-22T03:55:05.065Z,10.90
2019-05-22T03:57:36.159Z,11.00
2019-05-22T04:00:07.751Z,11.00
2019-05-22T04:02:38.740Z,11.00
2019-05-22T04:05:09.964Z,11.00
2019-05-22T04:07:41.246Z,11.00
2019-05-22T04:10:12.056Z,11.00
2019-05-22T04:12:43.115Z,11.00
2019-05-22T04:15:13.717Z,11.00
2019-05-22T04:17:45.519Z,11.00
2019-05-22T04:20:19.233Z,11.00
2019-05-22T04:22:55.762Z,11.00
2019-05-22T04:25:26.783Z,11.00
2019-05-22T04:27:56.982Z,11.00
2019-05-22T04:30:27.600Z,11.00
2019-05-22T04:32:58.575Z,11.00
2019-05-22T04:35:28.888Z,11.00
2019-05-22T04:37:58.749Z,11.00
2019-05-22T04:40:49.123Z,11.00
2019-05-22T04:43:24.730Z,11.00
2019-05-22T04:45:56.870Z,11.10
2019-05-22T04:48:27.674Z,11.10
2019-05-22T04:51:01.999Z,11.10
2019-05-22T04:53:31.940Z,11.10
2019-05-22T04:56:02.235Z,11.10
2019-05-22T04:58:33.563Z,11.10
2019-05-22T05:01:03.772Z,11.10
2019-05-22T05:03:33.803Z,11.10
2019-05-22T05:06:06.917Z,11.10
2019-05-22T05:08:37.481Z,11.20
2019-05-22T05:11:08.113Z,11.10
2019-05-22T05:13:38.117Z,11.10
2019-05-22T05:16:08.090Z,11.20
2019-05-22T05:18:38.085Z,11.10
2019-05-22T05:21:08.511Z,11.10
2019-05-22T05:23:38.830Z,11.10
2019-05-22T05:26:08.871Z,11.10
2019-05-22T05:28:39.078Z,11.10
2019-05-22T05:31:10.811Z,11.20
2019-05-22T05:34:07.398Z,11.20
2019-05-22T05:36:38.321Z,11.20
2019-05-22T05:39:13.296Z,11.20
2019-05-22T05:41:43.205Z,11.30
2019-05-22T05:44:13.062Z,11.30
2019-05-22T05:46:43.269Z,11.30
2019-05-22T05:49:13.719Z,11.30
2019-05-22T05:51:45.402Z,11.30
2019-05-22T05:54:20.362Z,11.40
2019-05-22T05:56:51.268Z,11.40
2019-05-22T05:59:22.702Z,11.40
2019-05-22T06:01:54.688Z,11.40
2019-05-22T06:04:34.866Z,11.40
2019-05-22T06:07:18.847Z,11.40
2019-05-22T06:10:23.839Z,11.40
2019-05-22T06:12:53.806Z,11.50
2019-05-22T06:15:45.849Z,11.50
2019-05-22T06:18:35.413Z,11.50
2019-05-22T06:21:07.265Z,11.50
2019-05-22T06:24:15.250Z,11.50
2019-05-22T06:27:02.280Z,11.50
2019-05-22T06:29:41.870Z,11.50
2019-05-22T06:33:00.217Z,11.60
2019-05-22T06:35:35.258Z,11.50
2019-05-22T06:38:14.203Z,11.50
2019-05-22T06:40:45.277Z,11.60
2019-05-22T06:44:01.233Z,11.40
2019-05-22T06:46:45.623Z,11.50
2019-05-22T06:49:45.035Z,11.40
2019-05-22T06:52:15.921Z,11.50
2019-05-22T06:54:46.228Z,11.50
2019-05-22T06:57:22.766Z,11.60
2019-05-22T07:00:11.628Z,11.60
2019-05-22T07:02:25.113Z,11.70
2019-05-22T07:04:55.797Z,11.70
2019-05-22T07:07:27.030Z,11.70
2019-05-22T07:09:57.759Z,11.70
2019-05-22T07:12:29.034Z,11.80
2019-05-22T07:15:30.919Z,11.80
2019-05-22T07:18:03.110Z,11.80
2019-05-22T07:20:35.575Z,11.80
2019-05-22T07:23:09.039Z,11.90
2019-05-22T07:25:41.669Z,11.90
2019-05-22T07:28:12.508Z,11.90
2019-05-22T07:30:42.549Z,11.90
2019-05-22T07:33:13.053Z,11.90
2019-05-22T07:36:04.784Z,11.90
2019-05-22T07:38:17.454Z,11.90
2019-05-22T07:40:50.425Z,12.00
2019-05-22T07:43:20.430Z,12.00
2019-05-22T07:45:51.625Z,12.00
2019-05-22T07:48:24.089Z,12.10
2019-05-22T07:50:56.187Z,12.10
2019-05-22T07:53:27.144Z,12.10
2019-05-22T07:55:59.460Z,12.10
2019-05-22T07:58:31.022Z,12.30
2019-05-22T08:01:03.318Z,12.30
2019-05-22T08:03:34.146Z,12.40
2019-05-22T08:06:06.170Z,12.30
2019-05-22T08:08:37.044Z,12.30
2019-05-22T08:11:07.434Z,12.30
2019-05-22T08:13:38.454Z,12.30
2019-05-22T08:16:09.713Z,12.30
2019-05-22T08:18:41.317Z,12.40
2019-05-22T08:21:11.825Z,12.30
2019-05-22T08:23:42.299Z,12.10
2019-05-22T08:26:15.140Z,12.00
2019-05-22T08:28:45.422Z,12.10
2019-05-22T08:31:17.214Z,12.10
2019-05-22T08:33:47.488Z,12.30
2019-05-22T08:36:18.081Z,12.40
2019-05-22T08:38:48.602Z,12.40
2019-05-22T08:41:23.736Z,12.40
2019-05-22T08:44:14.552Z,12.50
2019-05-22T08:46:26.336Z,12.60
2019-05-22T08:48:56.931Z,12.60
2019-05-22T08:51:27.085Z,12.60
2019-05-22T08:53:58.580Z,12.60
2019-05-22T08:56:31.960Z,12.60
2019-05-22T08:59:18.399Z,12.50
2019-05-22T09:01:34.707Z,12.50
2019-05-22T09:04:05.472Z,12.40
2019-05-22T09:06:35.611Z,12.30
2019-05-22T09:09:06.385Z,12.20
2019-05-22T09:11:36.240Z,12.20
2019-05-22T09:14:06.313Z,12.20
2019-05-22T09:16:36.539Z,12.20
2019-05-22T09:19:06.494Z,12.10
2019-05-22T09:21:40.575Z,12.20
2019-05-22T09:24:13.821Z,12.30
2019-05-22T09:26:44.626Z,12.40
2019-05-22T09:29:15.914Z,12.50
2019-05-22T09:31:45.689Z,12.50
2019-05-22T09:34:15.994Z,12.50
2019-05-22T09:36:45.998Z,12.60
2019-05-22T09:39:16.017Z,12.60
2019-05-22T09:41:45.972Z,12.50
2019-05-22T09:44:16.578Z,12.50
2019-05-22T09:46:47.517Z,12.50
2019-05-22T09:49:17.587Z,12.60
2019-05-22T09:51:47.543Z,12.70
2019-05-22T09:54:17.849Z,12.70
2019-05-22T09:56:47.860Z,12.80
2019-05-22T09:59:19.639Z,13.00
2019-05-22T10:01:50.118Z,13.10
2019-05-22T10:04:20.688Z,13.30
2019-05-22T10:06:51.117Z,13.40
2019-05-22T10:09:21.054Z,13.50
2019-05-22T10:11:51.694Z,13.60
2019-05-22T10:14:23.047Z,14.20
2019-05-22T10:16:53.152Z,14.40
2019-05-22T10:19:24.173Z,14.30
2019-05-22T10:21:54.614Z,14.20
2019-05-22T10:24:24.950Z,14.10
2019-05-22T10:26:55.198Z,13.90
2019-05-22T10:29:25.426Z,14.00
2019-05-22T10:31:55.429Z,13.90
2019-05-22T10:34:25.578Z,13.80
2019-05-22T10:36:56.058Z,13.80
2019-05-22T10:39:26.270Z,13.80
2019-05-22T10:41:56.433Z,13.70
2019-05-22T10:44:26.435Z,13.90
2019-05-22T10:46:56.889Z,14.10
2019-05-22T10:49:26.928Z,14.40
2019-05-22T10:51:57.065Z,14.30
2019-05-22T10:54:27.012Z,14.10
2019-05-22T10:56:56.917Z,13.60
2019-05-22T10:59:28.255Z,13.30
2019-05-22T11:01:58.762Z,13.40
2019-05-22T11:04:29.533Z,13.70
2019-05-22T11:06:59.630Z,13.70
2019-05-22T11:09:30.700Z,13.70
2019-05-22T11:12:01.206Z,13.60
2019-05-22T11:14:31.303Z,13.50
2019-05-22T11:17:01.624Z,13.30
2019-05-22T11:19:32.977Z,13.20
2019-05-22T11:22:03.225Z,13.10
2019-05-22T11:24:33.685Z,13.10
2019-05-22T11:27:03.600Z,13.30
2019-05-22T11:29:34.106Z,13.30
2019-05-22T11:32:05.165Z,13.70
2019-05-22T11:34:35.751Z,14.30
2019-05-22T11:37:05.938Z,14.40
2019-05-22T11:39:39.844Z,14.40
2019-05-22T11:42:10.339Z,14.00
2019-05-22T11:44:40.938Z,13.90
2019-05-22T11:47:11.979Z,13.60
2019-05-22T11:49:41.970Z,13.30
2019-05-22T11:52:15.365Z,13.10
2019-05-22T11:54:45.755Z,13.10
2019-05-22T11:57:16.530Z,13.00
2019-05-22T11:59:47.913Z,13.00
2019-05-22T12:02:18.306Z,13.00
2019-05-22T12:04:49.115Z,13.10
2019-05-22T12:07:19.367Z,13.10
2019-05-22T12:09:49.410Z,13.30
2019-05-22T12:12:20.205Z,13.20
2019-05-22T12:14:50.319Z,13.30
2019-05-22T12:17:36.652Z,13.40
2019-05-22T12:19:53.485Z,13.30
2019-05-22T12:22:23.379Z,13.40
2019-05-22T12:24:53.302Z,13.50
2019-05-22T12:27:23.399Z,13.60
2019-05-22T12:29:53.410Z,14.00
2019-05-22T12:32:23.430Z,14.00
2019-05-22T12:34:53.768Z,13.90
2019-05-22T12:37:24.772Z,13.80
2019-05-22T12:39:54.753Z,13.80
2019-05-22T12:42:26.118Z,13.60
2019-05-22T12:44:56.314Z,13.80
2019-05-22T12:47:26.662Z,13.90
2019-05-22T12:49:57.013Z,14.00
2019-05-22T12:52:27.449Z,14.10
2019-05-22T12:54:57.421Z,14.30
2019-05-22T12:57:27.585Z,14.40
2019-05-22T13:00:02.294Z,14.30
2019-05-22T13:02:31.526Z,14.20
2019-05-22T13:05:01.569Z,14.00
2019-05-22T13:07:32.465Z,14.00
2019-05-22T13:10:02.559Z,14.20
2019-05-22T13:12:33.206Z,14.50
2019-05-22T13:15:09.985Z,14.70
2019-05-22T13:17:35.686Z,15.20
2019-05-22T13:20:08.061Z,15.70
2019-05-22T13:22:40.890Z,15.60
2019-05-22T13:25:12.103Z,15.60
2019-05-22T13:27:43.491Z,15.50
2019-05-22T13:30:15.414Z,15.40
2019-05-22T13:32:45.648Z,15.10
2019-05-22T13:35:17.574Z,14.80
2019-05-22T13:37:47.787Z,14.60
2019-05-22T13:40:27.636Z,14.50
2019-05-22T13:42:50.543Z,14.40
2019-05-22T13:45:29.057Z,14.10
2019-05-22T13:47:53.530Z,13.90
2019-05-22T13:50:28.710Z,13.80
2019-05-22T13:52:58.252Z,13.90
2019-05-22T13:55:28.659Z,13.90
2019-05-22T13:57:59.792Z,14.10
2019-05-22T14:00:30.238Z,14.10
2019-05-22T14:03:00.718Z,14.10
2019-05-22T14:05:33.086Z,13.90
2019-05-22T14:08:03.395Z,13.90
2019-05-22T14:10:33.922Z,13.70
2019-05-22T14:13:04.335Z,13.60
2019-05-22T14:15:48.896Z,13.60
2019-05-22T14:18:06.718Z,13.80
2019-05-22T14:20:38.394Z,14.30
2019-05-22T14:23:08.636Z,14.60
2019-05-22T14:25:38.622Z,14.90
2019-05-22T14:28:08.676Z,15.10
2019-05-22T14:30:39.083Z,15.20
2019-05-22T14:33:09.186Z,15.20
2019-05-22T14:35:48.846Z,15.50
2019-05-22T14:38:14.691Z,15.70
2019-05-22T14:40:44.742Z,15.60
2019-05-22T14:43:14.662Z,15.70
2019-05-22T14:45:44.698Z,15.60
2019-05-22T14:48:15.651Z,15.50
2019-05-22T14:50:45.928Z,15.10
2019-05-22T14:53:16.570Z,14.90
2019-05-22T14:55:47.866Z,14.70
2019-05-22T14:58:18.684Z,14.60
2019-05-22T15:00:49.801Z,14.60
2019-05-22T15:03:20.898Z,14.70
2019-05-22T15:05:52.781Z,14.70
2019-05-22T15:08:22.998Z,14.80
2019-05-22T15:10:53.269Z,14.70
2019-05-22T15:13:24.491Z,14.70
2019-05-22T15:15:54.638Z,14.90
2019-05-22T15:18:24.636Z,14.60
2019-05-22T15:21:01.069Z,14.50
2019-05-22T15:23:36.160Z,14.40
2019-05-22T15:26:06.536Z,14.30
2019-05-22T15:28:36.565Z,14.20
2019-05-22T15:31:07.590Z,14.40
2019-05-22T15:33:37.722Z,14.40
2019-05-22T15:36:10.428Z,14.60
2019-05-22T15:38:42.159Z,14.70
2019-05-22T15:41:12.476Z,14.90
2019-05-22T15:43:51.544Z,15.20
2019-05-22T15:46:18.777Z,15.00
2019-05-22T15:48:51.626Z,14.90
2019-05-22T15:51:25.954Z,14.90
2019-05-22T15:53:57.917Z,14.90
2019-05-22T15:56:30.766Z,14.90
2019-05-22T15:59:03.413Z,15.00
2019-05-22T16:01:35.314Z,14.90
2019-05-22T16:04:07.673Z,15.00
2019-05-22T16:06:39.353Z,15.00
2019-05-22T16:09:13.081Z,14.80
2019-05-22T16:11:43.994Z,14.50
2019-05-22T16:14:14.755Z,14.40
2019-05-22T16:16:46.827Z,14.20
2019-05-22T16:19:19.222Z,14.10
2019-05-22T16:21:50.981Z,14.10
2019-05-22T16:24:21.422Z,14.00
2019-05-22T16:26:51.566Z,14.00
2019-05-22T16:29:23.827Z,14.10
2019-05-22T16:31:55.991Z,14.10
2019-05-22T16:34:28.500Z,14.10
2019-05-22T16:37:03.220Z,14.00
2019-05-22T16:39:31.703Z,14.00
2019-05-22T16:42:01.837Z,14.10
2019-05-22T16:44:32.046Z,14.10
2019-05-22T16:47:02.306Z,14.20
2019-05-22T16:49:32.641Z,14.20
2019-05-22T16:52:06.771Z,14.10
2019-05-22T16:54:39.492Z,14.00
2019-05-22T16:57:11.541Z,14.00
2019-05-22T16:59:41.656Z,13.80
2019-05-22T17:02:14.023Z,13.70
2019-05-22T17:04:44.078Z,13.60
2019-05-22T17:07:14.602Z,13.70
2019-05-22T17:09:45.926Z,13.60
2019-05-22T17:12:18.144Z,13.70
2019-05-22T17:14:49.398Z,13.60
2019-05-22T17:17:20.391Z,13.60
2019-05-22T17:19:50.687Z,13.70
2019-05-22T17:22:20.908Z,13.70
2019-05-22T17:24:51.230Z,13.80
2019-05-22T17:27:22.536Z,13.80
2019-05-22T17:29:52.937Z,13.80
2019-05-22T17:32:24.674Z,13.90
2019-05-22T17:34:54.725Z,13.80
2019-05-22T17:37:26.519Z,13.80
2019-05-22T17:39:56.761Z,13.80
2019-05-22T17:42:28.145Z,13.80
2019-05-22T17:44:58.423Z,13.70
2019-05-22T17:47:30.526Z,13.60
2019-05-22T17:50:01.686Z,13.70
2019-05-22T17:52:32.716Z,13.60
2019-05-22T17:55:04.675Z,13.50
2019-05-22T17:57:34.646Z,13.50
2019-05-22T18:00:07.282Z,13.40
2019-05-22T18:02:38.938Z,13.30
2019-05-22T18:05:09.618Z,13.30
2019-05-22T18:07:39.978Z,13.20
2019-05-22T18:10:11.567Z,13.20
2019-05-22T18:12:41.857Z,13.10
2019-05-22T18:15:13.344Z,13.10
2019-05-22T18:17:43.862Z,13.10
2019-05-22T18:20:14.930Z,13.00
2019-05-22T18:22:46.052Z,13.00
2019-05-22T18:25:16.128Z,13.00
2019-05-22T18:27:48.841Z,12.90
2019-05-22T18:30:23.022Z,12.90
2019-05-22T18:32:55.656Z,12.90
2019-05-22T18:35:26.381Z,12.80
2019-05-22T18:37:56.390Z,12.80
2019-05-22T18:40:26.299Z,12.70
2019-05-22T18:42:56.362Z,12.60
2019-05-22T18:45:27.583Z,12.60
2019-05-22T18:47:57.541Z,12.50
2019-05-22T18:50:27.526Z,12.40
2019-05-22T18:52:57.485Z,12.40
2019-05-22T18:55:27.670Z,12.30
2019-05-22T18:57:57.450Z,12.30
2019-05-22T19:00:29.149Z,12.20
2019-05-22T19:02:59.447Z,12.10
2019-05-22T19:05:31.886Z,12.00
2019-05-22T19:08:02.229Z,11.90
2019-05-22T19:10:33.354Z,11.80
2019-05-22T19:13:03.524Z,11.70
2019-05-22T19:15:33.884Z,11.70
2019-05-22T19:18:04.353Z,11.60
2019-05-22T19:20:34.437Z,11.50
2019-05-22T19:23:05.005Z,11.50
2019-05-22T19:25:35.392Z,11.50
2019-05-22T19:28:05.553Z,11.50
2019-05-22T19:30:36.203Z,11.40
2019-05-22T19:33:06.601Z,11.30
2019-05-22T19:35:36.513Z,11.20
2019-05-22T19:38:07.061Z,11.20
2019-05-22T19:40:37.543Z,11.10
2019-05-22T19:43:08.254Z,11.10
2019-05-22T19:45:38.312Z,11.10
2019-05-22T19:48:09.994Z,11.10
2019-05-22T19:50:42.033Z,11.00
2019-05-22T19:53:18.769Z,10.90
2019-05-22T19:55:45.390Z,10.80
2019-05-22T19:58:15.640Z,10.70
2019-05-22T20:00:47.689Z,10.50
2019-05-22T20:03:19.889Z,10.40
2019-05-22T20:05:50.726Z,10.40
2019-05-22T20:08:22.482Z,10.30
2019-05-22T20:10:53.647Z,10.20
2019-05-22T20:13:25.009Z,10.20
2019-05-22T20:15:55.820Z,10.20
2019-05-22T20:18:26.206Z,10.10
2019-05-22T20:20:58.161Z,10.00
2019-05-22T20:23:36.036Z,10.00
2019-05-22T20:26:00.951Z,9.90
2019-05-22T20:28:31.316Z,9.90
2019-05-22T20:31:06.383Z,9.80
2019-05-22T20:33:37.997Z,9.70
2019-05-22T20:36:08.704Z,9.60
2019-05-22T20:38:40.086Z,9.60
2019-05-22T20:41:10.659Z,9.60
2019-05-22T20:43:42.133Z,9.50
2019-05-22T20:46:15.210Z,9.50
2019-05-22T20:48:46.880Z,9.50
2019-05-22T20:51:18.302Z,9.40
2019-05-22T20:53:54.076Z,9.40
2019-05-22T20:56:23.870Z,9.40
2019-05-22T20:58:55.244Z,9.50
2019-05-22T21:01:26.886Z,9.50
2019-05-22T21:03:59.619Z,9.50
2019-05-22T21:06:32.558Z,9.40
2019-05-22T21:09:04.762Z,9.40
2019-05-22T21:11:36.418Z,9.30
2019-05-22T21:14:06.848Z,9.30
2019-05-22T21:16:37.122Z,9.20
2019-05-22T21:19:07.781Z,9.10
2019-05-22T21:21:38.139Z,9.00
2019-05-22T21:24:11.684Z,9.00
2019-05-22T21:26:41.405Z,8.90
2019-05-22T21:29:12.180Z,8.90
2019-05-22T21:31:42.631Z,8.90
2019-05-22T21:34:12.715Z,8.80
2019-05-22T21:36:43.239Z,8.80
2019-05-22T21:39:15.018Z,8.80
2019-05-22T21:41:45.143Z,8.70
2019-05-22T21:44:15.194Z,8.60
2019-05-22T21:46:45.234Z,8.60
2019-05-22T21:49:15.573Z,8.60
2019-05-22T21:51:45.759Z,8.60
2019-05-22T21:54:15.805Z,8.60
2019-05-22T21:56:45.903Z,8.50
2019-05-22T21:59:15.800Z,8.30
2019-05-22T22:01:51.865Z,8.20
2019-05-22T22:04:26.782Z,8.20
2019-05-22T22:06:56.934Z,8.10
2019-05-22T22:09:27.610Z,8.00
2019-05-22T22:11:58.530Z,8.00
2019-05-22T22:14:29.102Z,8.00
2019-05-22T22:16:59.945Z,8.00
2019-05-22T22:19:31.357Z,8.00
2019-05-22T22:22:01.734Z,8.00
2019-05-22T22:24:33.546Z,7.90
2019-05-22T22:27:04.043Z,7.80
2019-05-22T22:29:34.599Z,7.80
2019-05-22T22:32:06.098Z,7.70
2019-05-22T22:34:46.323Z,7.60
2019-05-22T22:37:17.374Z,7.60
2019-05-22T22:39:54.103Z,7.50
2019-05-22T22:42:26.398Z,7.60
2019-05-22T22:44:57.311Z,7.60
2019-05-22T22:47:41.473Z,7.70
2019-05-22T22:50:12.973Z,7.70
2019-05-22T22:52:45.049Z,7.70
2019-05-22T22:55:19.169Z,7.70
2019-05-22T22:57:51.279Z,7.60
2019-05-22T23:00:32.996Z,7.40
2019-05-22T23:03:04.396Z,7.30
2019-05-22T23:05:35.676Z,7.20
2019-05-22T23:08:06.004Z,7.20
2019-05-22T23:10:36.268Z,7.20
2019-05-22T23:13:06.988Z,7.10
2019-05-22T23:15:36.953Z,7.10
2019-05-22T23:18:07.114Z,7.10
2019-05-22T23:20:35.886Z,7.10
2019-05-22T23:23:04.314Z,7.10
2019-05-22T23:25:34.247Z,7.20
2019-05-22T23:28:05.885Z,7.20
2019-05-22T23:30:36.711Z,7.20
2019-05-22T23:33:06.718Z,7.20
2019-05-22T23:35:37.120Z,7.10
2019-05-22T23:38:07.353Z,7.00
2019-05-22T23:40:37.450Z,7.00
2019-05-22T23:43:08.668Z,6.90
2019-05-22T23:45:38.759Z,6.80
2019-05-22T23:48:13.794Z,6.70
2019-05-22T23:50:44.452Z,6.70
2019-05-22T23:53:16.190Z,6.70
2019-05-22T23:55:46.434Z,6.70
2019-05-22T23:58:17.684Z,6.70
